Time;durP1;ratioP1;P1;durP2;ratioP2;P2;SDS_P1;SDS_P2;PMS_P1;PMS_P2;Temp;Humidity;BMP_temperature;BMP_pressure;BME280_temperature;BME280_humidity;BME280_pressure;Samples;Min_cycle;Max_cycle;Signal;HPM_P1;HPM_P2
2022/07/13 00:02:05;;;;;;;7.05;5.80;;;;;;;23.54;59.27;101895.28;3597800;39;20374;-63
2022/07/13 00:04:31;;;;;;;6.75;5.05;;;;;;;23.55;56.66;101886.03;3598443;39;20066;-63
2022/07/13 00:06:56;;;;;;;6.28;5.32;;;;;;;23.53;57.76;101888.94;3595748;39;20306;-64
2022/07/13 00:09:22;;;;;;;5.70;5.20;;;;;;;23.44;56.82;101867.00;3595010;39;20128;-63
2022/07/13 00:11:47;;;;;;;6.18;5.55;;;;;;;23.45;56.18;101852.28;3595957;39;20113;-63
2022/07/13 00:14:13;;;;;;;6.18;5.47;;;;;;;23.57;55.21;101867.53;3596578;39;20052;-64
2022/07/13 00:16:39;;;;;;;8.82;5.30;;;;;;;23.58;56.39;101847.28;3596852;39;20063;-63
2022/07/13 00:19:04;;;;;;;5.63;4.70;;;;;;;23.59;55.02;101849.88;3598199;39;20059;-63
2022/07/13 00:21:30;;;;;;;6.22;4.97;;;;;;;23.60;53.82;101850.75;3598636;39;20070;-64
2022/07/13 00:23:55;;;;;;;5.38;4.75;;;;;;;23.60;53.78;101846.13;3597589;39;20398;-64
2022/07/13 00:26:21;;;;;;;5.22;4.72;;;;;;;23.63;54.50;101839.47;3595892;39;20048;-63
2022/07/13 00:28:46;;;;;;;5.75;4.43;;;;;;;23.60;53.58;101837.03;3596406;39;20052;-63
2022/07/13 00:31:12;;;;;;;6.55;4.78;;;;;;;23.66;53.35;101839.16;3595021;39;20067;-63
2022/07/13 00:33:38;;;;;;;6.30;4.70;;;;;;;23.65;53.61;101845.66;3597823;39;20077;-63
2022/07/13 00:36:03;;;;;;;5.85;4.53;;;;;;;23.51;53.94;101818.75;3598005;39;20047;-63
2022/07/13 00:38:29;;;;;;;5.70;4.47;;;;;;;23.62;53.55;101834.97;3597312;39;20405;-63
2022/07/13 00:40:54;;;;;;;5.68;4.32;;;;;;;23.66;52.51;101828.19;3597923;39;20147;-63
2022/07/13 00:43:20;;;;;;;5.32;4.43;;;;;;;23.66;53.38;101821.78;3597430;39;20057;-63
2022/07/13 00:45:46;;;;;;;4.70;4.30;;;;;;;23.64;53.60;101814.59;3597762;39;20059;-63
2022/07/13 00:48:12;;;;;;;4.65;4.25;;;;;;;23.64;53.10;101819.22;3597128;39;20069;-64
2022/07/13 00:50:39;;;;;;;9.13;4.30;;;;;;;23.40;53.19;101770.41;3597300;39;20062;-64
2022/07/13 00:53:05;;;;;;;6.22;4.03;;;;;;;23.61;53.51;101808.56;3597450;39;20053;-63
2022/07/13 00:55:32;;;;;;;5.82;4.05;;;;;;;23.61;53.31;101809.41;3600449;39;20067;-64
2022/07/13 00:57:59;;;;;;;4.55;3.78;;;;;;;23.45;52.96;101780.94;3597660;39;20620;-63
2022/07/13 01:00:25;;;;;;;4.47;3.90;;;;;;;23.61;52.47;101803.91;3597890;39;20058;-63
2022/07/13 01:02:51;;;;;;;5.03;3.95;;;;;;;23.63;51.93;101804.63;3599647;39;20059;-63
2022/07/13 01:05:17;;;;;;;4.13;3.67;;;;;;;23.66;52.53;101803.47;3599518;39;20145;-63
2022/07/13 01:07:45;;;;;;;6.13;3.70;;;;;;;23.65;51.83;101793.47;3598766;39;20063;-64
2022/07/13 01:10:12;;;;;;;7.30;4.22;;;;;;;23.50;51.77;101767.59;3596509;39;20078;-63
2022/07/13 01:12:40;;;;;;;5.65;3.85;;;;;;;23.69;51.07;101800.44;3597906;39;20091;-63
2022/07/13 01:15:08;;;;;;;4.15;3.72;;;;;;;23.71;51.57;101803.00;3597370;39;20066;-63
2022/07/13 01:17:36;;;;;;;5.70;3.90;;;;;;;23.63;51.81;101790.06;3596318;39;20056;-64
2022/07/13 01:20:06;;;;;;;4.97;3.70;;;;;;;23.71;53.50;101803.00;3598739;39;20071;-64
2022/07/13 01:22:52;;;;;;;5.85;3.80;;;;;;;23.68;53.64;101797.81;3587840;39;20064;-65
2022/07/13 01:25:19;;;;;;;6.95;3.80;;;;;;;23.64;52.29;101791.75;3597662;39;20107;-64
2022/07/13 01:27:49;;;;;;;4.65;3.40;;;;;;;23.63;50.97;101792.78;3597306;39;20059;-64
2022/07/13 01:30:16;;;;;;;6.38;3.58;;;;;;;23.55;51.28;101777.09;3600145;39;20059;-64
2022/07/13 01:32:47;;;;;;;5.43;3.40;;;;;;;23.63;52.62;101784.56;3597864;39;20090;-64
2022/07/13 01:35:15;;;;;;;6.40;3.75;;;;;;;23.55;51.88;101787.22;3600750;39;20124;-64
2022/07/13 01:37:43;;;;;;;6.20;3.25;;;;;;;23.59;50.28;101794.09;3597295;39;20048;-64
2022/07/13 01:40:10;;;;;;;5.47;3.35;;;;;;;23.59;50.47;101785.88;3597487;39;20117;-64
2022/07/13 01:42:48;;;;;;;4.65;3.15;;;;;;;23.62;50.16;101780.94;3598008;39;20068;-64
2022/07/13 01:45:16;;;;;;;5.35;3.53;;;;;;;23.63;48.73;101787.31;3600154;39;20071;-65
2022/07/13 01:47:45;;;;;;;4.22;3.30;;;;;;;23.66;49.23;101789.75;3599123;39;20405;-64
2022/07/13 01:50:13;;;;;;;3.58;3.28;;;;;;;23.65;49.67;101788.00;3596984;39;20343;-64
2022/07/13 01:52:39;;;;;;;3.67;3.03;;;;;;;23.66;49.80;101795.22;3596850;39;20055;-64
2022/07/13 01:55:07;;;;;;;5.95;3.42;;;;;;;23.68;49.39;101792.31;3599111;39;20048;-64
2022/07/13 01:57:34;;;;;;;8.20;3.42;;;;;;;23.66;49.69;101794.34;3586921;39;20334;-64
2022/07/13 02:00:11;;;;;;;3.40;3.08;;;;;;;23.64;48.78;101787.13;3598446;39;20055;-64
2022/07/13 02:02:38;;;;;;;5.03;3.30;;;;;;;23.62;49.85;101788.31;3596871;39;20398;-65
2022/07/13 02:05:04;;;;;;;5.30;3.40;;;;;;;23.61;49.78;101786.59;3598173;39;20626;-65
2022/07/13 02:07:29;;;;;;;4.95;3.25;;;;;;;23.58;49.59;101779.53;3598285;39;20124;-65
2022/07/13 02:09:55;;;;;;;5.53;3.30;;;;;;;23.57;49.75;101771.47;3596582;39;20064;-64
2022/07/13 02:12:21;;;;;;;3.88;3.40;;;;;;;23.56;50.19;101770.56;3598773;39;20274;-64
2022/07/13 02:14:48;;;;;;;4.00;3.25;;;;;;;23.55;50.40;101763.38;3598388;39;20370;-64
2022/07/13 02:17:14;;;;;;;3.58;3.28;;;;;;;23.49;50.06;101752.16;3599528;39;20303;-64
2022/07/13 02:19:40;;;;;;;3.53;3.22;;;;;;;23.46;50.42;101757.97;3599949;39;20403;-64
2022/07/13 02:22:06;;;;;;;4.70;3.35;;;;;;;23.26;50.22;101716.94;3599572;39;20064;-64
2022/07/13 02:24:33;;;;;;;4.35;3.00;;;;;;;23.45;50.94;101753.50;3601041;39;20371;-64
2022/07/13 02:26:59;;;;;;;5.57;3.58;;;;;;;23.46;50.85;101749.72;3598221;39;20051;-64
2022/07/13 02:29:25;;;;;;;4.43;3.10;;;;;;;23.42;50.76;101754.66;3597809;39;20116;-64
2022/07/13 02:31:50;;;;;;;5.40;3.53;;;;;;;23.41;50.50;101758.44;3597255;39;20097;-64
2022/07/13 02:34:17;;;;;;;4.40;3.42;;;;;;;23.38;50.52;101751.38;3598540;39;20073;-64
2022/07/13 02:36:43;;;;;;;4.82;3.42;;;;;;;23.42;49.88;101749.19;3600630;39;20129;-64
2022/07/13 02:39:08;;;;;;;5.90;3.10;;;;;;;23.37;50.28;101738.69;3597508;39;20353;-64
2022/07/13 02:41:34;;;;;;;4.25;3.03;;;;;;;23.39;49.89;101733.88;3597045;39;20286;-64
2022/07/13 02:43:59;;;;;;;4.68;3.20;;;;;;;23.42;51.00;101746.44;3597278;39;20051;-64
2022/07/13 02:46:25;;;;;;;7.18;3.45;;;;;;;23.43;50.12;101744.56;3595776;39;20105;-64
2022/07/13 02:48:50;;;;;;;3.70;3.40;;;;;;;23.42;50.42;101735.47;3594335;39;20085;-64
2022/07/13 02:51:16;;;;;;;5.07;3.20;;;;;;;23.38;50.91;101721.19;3597426;39;20425;-63
2022/07/13 02:53:42;;;;;;;4.07;3.40;;;;;;;23.35;50.59;101713.28;3596751;39;20326;-63
2022/07/13 02:56:08;;;;;;;3.60;3.25;;;;;;;23.37;50.15;101729.56;3596925;39;20068;-63
2022/07/13 02:58:33;;;;;;;4.35;2.97;;;;;;;23.36;50.81;101739.69;3588614;39;20337;-63
2022/07/13 03:00:59;;;;;;;3.97;3.45;;;;;;;23.29;50.72;101722.13;3596962;39;20059;-63
2022/07/13 03:03:25;;;;;;;4.72;3.60;;;;;;;23.37;50.77;101730.47;3596122;39;20120;-64
2022/07/13 03:05:51;;;;;;;5.80;3.50;;;;;;;23.35;50.49;101732.47;3593993;39;20099;-63
2022/07/13 03:08:16;;;;;;;5.28;3.08;;;;;;;23.36;50.80;101733.34;3597077;39;20055;-64
2022/07/13 03:10:42;;;;;;;4.75;3.20;;;;;;;23.35;50.49;101740.72;3596414;39;20066;-64
2022/07/13 03:13:08;;;;;;;3.60;3.10;;;;;;;23.30;50.44;101740.31;3597385;39;20423;-64
2022/07/13 03:15:33;;;;;;;5.13;3.40;;;;;;;23.31;50.68;101736.56;3596347;39;20831;-64
2022/07/13 03:17:59;;;;;;;3.90;3.10;;;;;;;23.30;50.80;101733.97;3594755;39;20063;-64
2022/07/13 03:20:24;;;;;;;3.03;2.67;;;;;;;23.27;51.01;101735.13;3597727;39;20100;-64
2022/07/13 03:22:51;;;;;;;4.07;2.97;;;;;;;23.30;50.92;101729.34;3596286;39;20056;-64
2022/07/13 03:25:16;;;;;;;3.75;3.08;;;;;;;23.30;50.68;101734.81;3595149;39;20096;-64
2022/07/13 03:27:42;;;;;;;4.95;3.30;;;;;;;23.29;51.29;101726.75;3596548;39;20140;-64
2022/07/13 03:30:08;;;;;;;3.75;3.45;;;;;;;23.10;50.97;101703.06;3598585;39;20056;-64
2022/07/13 03:32:34;;;;;;;3.65;2.95;;;;;;;23.27;51.05;101724.16;3595960;39;20055;-63
2022/07/13 03:35:00;;;;;;;3.80;3.40;;;;;;;23.25;51.46;101725.31;3596910;39;20054;-63
2022/07/13 03:37:25;;;;;;;3.92;3.30;;;;;;;23.22;51.64;101726.53;3597145;39;20059;-63
2022/07/13 03:39:51;;;;;;;5.63;3.17;;;;;;;23.20;51.29;101725.81;3596903;39;20263;-64
2022/07/13 03:42:16;;;;;;;6.35;3.17;;;;;;;23.13;51.35;101705.50;3601141;39;20128;-64
2022/07/13 03:44:42;;;;;;;5.40;3.22;;;;;;;23.20;51.65;101724.94;3599425;39;20054;-64
2022/07/13 03:47:08;;;;;;;4.20;3.50;;;;;;;23.17;51.99;101721.47;3596864;39;20048;-65
2022/07/13 03:49:33;;;;;;;4.60;3.40;;;;;;;23.18;51.19;101716.84;3598685;39;20051;-64
2022/07/13 03:51:59;;;;;;;7.97;3.85;;;;;;;23.21;51.77;101713.81;3601589;39;20121;-63
2022/07/13 03:54:25;;;;;;;4.65;3.30;;;;;;;23.18;51.36;101727.81;3597595;39;20302;-64
2022/07/13 03:56:50;;;;;;;3.95;3.53;;;;;;;23.16;51.34;101713.44;3598575;39;20055;-63
2022/07/13 03:59:16;;;;;;;4.15;3.30;;;;;;;23.19;51.38;101709.50;3598029;39;20109;-63
2022/07/13 04:01:42;;;;;;;4.78;3.10;;;;;;;23.19;51.38;101709.50;3597174;39;20283;-64
2022/07/13 04:04:08;;;;;;;3.75;3.30;;;;;;;23.16;51.14;101719.78;3597035;39;20040;-64
2022/07/13 04:06:33;;;;;;;8.02;3.33;;;;;;;23.13;51.07;101711.84;3594706;39;20048;-63
2022/07/13 04:08:59;;;;;;;5.28;3.00;;;;;;;23.15;51.34;101723.53;3595428;39;20310;-64
2022/07/13 04:11:28;;;;;;;5.30;3.20;;;;;;;23.17;51.20;101712.41;3595821;39;20044;-64
2022/07/13 04:13:53;;;;;;;4.57;3.08;;;;;;;23.19;51.73;101710.38;3597628;39;20047;-63
2022/07/13 04:16:19;;;;;;;5.57;3.53;;;;;;;23.19;51.28;101710.38;3596830;39;20456;-64
2022/07/13 04:18:45;;;;;;;6.30;3.00;;;;;;;23.19;51.11;101715.00;3596940;39;20052;-63
2022/07/13 04:21:13;;;;;;;4.93;3.38;;;;;;;23.21;51.10;101708.31;3596755;39;20047;-63
2022/07/13 04:23:40;;;;;;;3.85;2.95;;;;;;;23.21;51.43;101701.97;3595698;39;20050;-64
2022/07/13 04:26:07;;;;;;;7.35;3.25;;;;;;;23.19;51.31;101706.78;3596615;39;20124;-63
2022/07/13 04:28:32;;;;;;;4.38;3.28;;;;;;;23.20;51.59;101705.75;3594856;39;20413;-64
2022/07/13 04:30:59;;;;;;;5.13;3.35;;;;;;;23.19;51.43;101696.66;3595552;39;20051;-64
2022/07/13 04:33:24;;;;;;;7.00;3.40;;;;;;;23.21;51.52;101691.00;3588215;39;20058;-63
2022/07/13 04:35:50;;;;;;;3.85;3.45;;;;;;;23.19;51.73;101693.06;3596214;39;20067;-63
2022/07/13 04:38:16;;;;;;;4.18;2.97;;;;;;;23.13;52.03;101675.34;3595071;39;20112;-63
2022/07/13 04:40:41;;;;;;;4.88;3.30;;;;;;;23.19;51.62;101690.31;3595975;39;20360;-64
2022/07/13 04:43:07;;;;;;;4.15;3.28;;;;;;;23.17;51.65;101688.56;3596674;39;20081;-64
2022/07/13 04:45:33;;;;;;;4.22;3.22;;;;;;;23.17;51.96;101680.34;3595059;39;20474;-63
2022/07/13 04:47:59;;;;;;;5.70;3.42;;;;;;;23.31;51.70;101700.91;3589263;39;20051;-64
2022/07/13 04:50:25;;;;;;;4.75;3.13;;;;;;;23.29;52.11;101694.69;3599610;39;20103;-64
2022/07/13 04:52:51;;;;;;;5.07;3.47;;;;;;;23.29;51.66;101697.44;3597942;39;20071;-64
2022/07/13 04:55:18;;;;;;;5.10;3.47;;;;;;;23.15;51.61;101674.16;3595223;39;20056;-64
2022/07/13 04:57:44;;;;;;;6.10;3.33;;;;;;;23.31;51.52;101697.25;3589129;39;20051;-64
2022/07/13 05:00:11;;;;;;;5.57;3.03;;;;;;;23.29;52.06;101689.19;3597632;39;20094;-64
2022/07/13 05:02:37;;;;;;;7.53;3.78;;;;;;;23.31;51.81;101702.75;3597176;39;20056;-63
2022/07/13 05:05:04;;;;;;;3.60;3.22;;;;;;;23.30;51.79;101690.06;3599258;39;20099;-63
2022/07/13 05:07:30;;;;;;;4.95;3.30;;;;;;;23.30;51.56;101679.94;3595167;39;20283;-64
2022/07/13 05:09:57;;;;;;;4.88;3.08;;;;;;;23.36;51.17;101692.19;3597407;39;20063;-64
2022/07/13 05:12:22;;;;;;;6.18;3.42;;;;;;;23.37;51.03;101697.53;3600975;39;20070;-63
2022/07/13 05:14:48;;;;;;;6.72;3.60;;;;;;;23.40;51.04;101691.69;3598862;39;20055;-64
2022/07/13 05:17:15;;;;;;;5.60;2.97;;;;;;;23.45;50.90;101693.13;3596174;39;20071;-64
2022/07/13 05:19:42;;;;;;;4.25;3.35;;;;;;;23.51;50.83;101697.97;3597868;39;20058;-64
2022/07/13 05:22:07;;;;;;;5.03;3.38;;;;;;;23.55;50.39;101693.88;3596855;39;20307;-64
2022/07/13 05:24:33;;;;;;;3.70;2.97;;;;;;;23.60;50.40;101688.78;3596159;39;20063;-64
2022/07/13 05:26:58;;;;;;;4.22;2.90;;;;;;;23.64;50.28;101687.44;3595800;39;20064;-63
2022/07/13 05:29:24;;;;;;;3.80;2.88;;;;;;;23.61;50.16;101676.78;3595240;39;20052;-64
2022/07/13 05:31:50;;;;;;;6.47;3.05;;;;;;;23.65;49.89;101697.41;3595686;39;20070;-64
2022/07/13 05:34:15;;;;;;;4.82;2.92;;;;;;;23.63;49.81;101685.75;3596949;39;20379;-64
2022/07/13 05:36:41;;;;;;;4.07;2.90;;;;;;;23.62;50.17;101684.84;3596076;39;20070;-63
2022/07/13 05:39:07;;;;;;;4.30;3.00;;;;;;;23.64;49.88;101692.94;3597339;39;20055;-64
2022/07/13 05:41:35;;;;;;;4.93;2.88;;;;;;;23.66;49.93;101696.41;3597347;39;20397;-64
2022/07/13 05:44:01;;;;;;;4.03;3.13;;;;;;;23.66;49.47;101707.38;3599905;39;20051;-64
2022/07/13 05:46:27;;;;;;;4.22;2.70;;;;;;;23.70;49.15;101694.22;3597641;39;20051;-64
2022/07/13 05:48:53;;;;;;;3.22;2.88;;;;;;;23.73;49.42;101702.16;3598029;39;20081;-63
2022/07/13 05:51:18;;;;;;;3.20;2.88;;;;;;;23.76;49.30;101697.19;3597808;39;20062;-63
2022/07/13 05:53:46;;;;;;;6.03;2.95;;;;;;;23.81;49.18;101704.94;3598162;39;20056;-64
2022/07/13 05:56:11;;;;;;;3.42;2.80;;;;;;;23.81;49.16;101703.03;3598064;39;20058;-63
2022/07/13 05:58:37;;;;;;;4.43;2.60;;;;;;;23.93;49.25;101711.03;3598039;39;20051;-64
2022/07/13 06:01:03;;;;;;;4.15;2.88;;;;;;;23.98;49.08;101708.69;3597250;39;20098;-63
2022/07/13 06:03:28;;;;;;;3.50;2.70;;;;;;;23.95;49.05;101692.53;3598094;39;20052;-64
2022/07/13 06:05:54;;;;;;;3.95;2.85;;;;;;;23.98;49.20;101697.69;3597509;39;20077;-64
2022/07/13 06:08:19;;;;;;;4.32;2.70;;;;;;;24.08;48.75;101717.66;3597221;39;20056;-64
2022/07/13 06:10:45;;;;;;;3.05;2.50;;;;;;;24.08;48.57;101706.69;3600075;39;20071;-64
2022/07/13 06:13:10;;;;;;;3.47;3.00;;;;;;;24.13;48.38;101703.44;3598113;39;20117;-63
2022/07/13 06:15:36;;;;;;;7.13;3.08;;;;;;;24.13;48.43;101698.81;3598592;39;20066;-64
2022/07/13 06:18:04;;;;;;;7.00;2.90;;;;;;;24.14;48.19;101711.53;3596883;39;20071;-64
2022/07/13 06:20:29;;;;;;;9.32;2.85;;;;;;;24.21;48.10;101719.97;3597298;39;20095;-64
2022/07/13 06:23:10;;;;;;;4.70;2.60;;;;;;;24.24;48.54;101723.25;3597731;39;20055;-64
2022/07/13 06:25:38;;;;;;;4.25;2.80;;;;;;;24.32;48.17;101709.56;3597962;39;20106;-64
2022/07/13 06:28:05;;;;;;;5.72;2.50;;;;;;;24.19;48.36;101678.06;3595536;39;20408;-64
2022/07/13 06:30:34;;;;;;;5.82;3.10;;;;;;;24.37;48.28;101699.97;3595716;39;20750;-64
2022/07/13 06:33:00;;;;;;;6.55;2.90;;;;;;;24.34;47.50;101681.94;3596358;39;20051;-64
2022/07/13 06:35:26;;;;;;;9.52;3.30;;;;;;;24.61;47.72;101713.88;3595141;39;20059;-64
2022/07/13 06:37:52;;;;;;;7.53;3.28;;;;;;;24.71;48.13;101713.75;3595723;39;20129;-64
2022/07/13 06:40:18;;;;;;;9.10;3.25;;;;;;;24.75;47.96;101704.97;3596600;39;20056;-64
2022/07/13 06:42:44;;;;;;;11.95;3.15;;;;;;;24.78;48.21;101709.28;3596609;39;20058;-64
2022/07/13 06:45:10;;;;;;;7.65;3.40;;;;;;;24.77;47.72;101702.94;3595759;39;20373;-64
2022/07/13 06:47:37;;;;;;;9.65;3.10;;;;;;;24.84;48.00;101708.63;3595887;39;20093;-64
2022/07/13 06:50:06;;;;;;;4.95;2.97;;;;;;;24.90;47.92;101702.47;3595893;39;20051;-64
2022/07/13 06:52:37;;;;;;;10.57;3.33;;;;;;;24.96;48.00;101695.41;3599256;39;20052;-64
2022/07/13 06:55:04;;;;;;;10.27;3.35;;;;;;;25.11;47.84;101704.72;3597364;39;20295;-64
2022/07/13 06:57:30;;;;;;;7.35;3.40;;;;;;;25.27;47.91;101697.56;3594613;39;20095;-63
2022/07/13 06:59:56;;;;;;;7.05;3.70;;;;;;;25.38;47.30;101708.25;3594694;39;20147;-64
2022/07/13 07:02:22;;;;;;;9.00;3.67;;;;;;;25.45;47.99;101701.03;3596613;39;20091;-64
2022/07/13 07:04:47;;;;;;;8.30;3.30;;;;;;;25.50;47.32;101698.66;3598412;39;20126;-64
2022/07/13 07:07:13;;;;;;;10.20;3.67;;;;;;;25.50;47.75;101701.41;3596579;39;20067;-64
2022/07/13 07:09:38;;;;;;;7.93;3.20;;;;;;;25.51;47.75;101711.38;3595024;39;20086;-63
2022/07/13 07:12:04;;;;;;;12.07;7.20;;;;;;;25.51;47.04;101716.03;3597243;39;20047;-64
2022/07/13 07:14:32;;;;;;;7.47;3.70;;;;;;;25.48;47.48;101711.72;3594343;39;20055;-64
2022/07/13 07:16:59;;;;;;;6.40;3.50;;;;;;;25.47;47.17;101710.84;3596521;39;20062;-64
2022/07/13 07:19:25;;;;;;;7.43;3.80;;;;;;;25.48;47.49;101717.22;3595280;39;20067;-64
2022/07/13 07:21:51;;;;;;;8.05;3.92;;;;;;;25.56;47.87;101710.84;3594680;39;20125;-64
2022/07/13 07:24:16;;;;;;;7.95;3.45;;;;;;;25.81;48.23;101711.72;3597210;39;20055;-64
2022/07/13 07:26:42;;;;;;;7.60;3.45;;;;;;;26.16;47.42;101711.34;3594458;39;20151;-64
2022/07/13 07:29:07;;;;;;;5.70;3.30;;;;;;;26.36;46.42;101702.69;3594234;39;20302;-64
2022/07/13 07:31:33;;;;;;;6.22;3.50;;;;;;;26.39;46.12;101705.94;3597446;39;20061;-64
2022/07/13 07:33:58;;;;;;;9.52;5.10;;;;;;;26.47;46.28;101716.06;3595875;39;20055;-64
2022/07/13 07:36:24;;;;;;;15.80;11.23;;;;;;;26.53;45.92;101709.88;3596750;39;20081;-64
2022/07/13 07:38:50;;;;;;;9.90;4.47;;;;;;;26.67;46.56;101704.66;3597346;39;20396;-64
2022/07/13 07:41:15;;;;;;;6.15;3.95;;;;;;;26.75;46.96;101702.72;3596933;39;20070;-65
2022/07/13 07:43:41;;;;;;;7.80;4.38;;;;;;;26.79;46.25;101703.22;3596940;39;20521;-65
2022/07/13 07:46:06;;;;;;;8.75;7.35;;;;;;;26.73;46.12;101688.22;3593502;39;20383;-65
2022/07/13 07:48:32;;;;;;;6.35;4.60;;;;;;;26.75;46.39;101705.47;3597088;39;20371;-65
2022/07/13 07:50:58;;;;;;;5.43;4.05;;;;;;;26.73;46.92;101702.03;3596364;39;20055;-65
2022/07/13 07:53:24;;;;;;;8.30;4.10;;;;;;;26.80;47.35;101703.06;3601295;39;20518;-65
2022/07/13 07:55:50;;;;;;;5.57;4.60;;;;;;;26.92;46.61;101703.47;3599152;39;20052;-64
2022/07/13 07:58:16;;;;;;;7.82;4.80;;;;;;;26.53;46.51;101627.16;3597133;39;20132;-65
2022/07/13 08:00:43;;;;;;;9.90;4.40;;;;;;;27.03;47.00;101702.22;3599980;39;20124;-64
2022/07/13 08:03:09;;;;;;;7.97;4.65;;;;;;;26.95;46.01;101699.50;3600157;39;20488;-64
2022/07/13 08:05:36;;;;;;;11.43;5.35;;;;;;;26.92;46.62;101695.19;3598116;39;20297;-64
2022/07/13 08:08:02;;;;;;;8.90;5.00;;;;;;;26.98;47.28;101697.25;3597763;39;20272;-64
2022/07/13 08:10:28;;;;;;;8.85;4.60;;;;;;;27.11;47.59;101701.31;3598543;39;20047;-64
2022/07/13 08:12:56;;;;;;;7.63;4.25;;;;;;;27.24;46.62;101709.88;3599028;39;20059;-64
2022/07/13 08:15:22;;;;;;;6.57;4.65;;;;;;;27.30;47.13;101707.22;3596451;39;20052;-64
2022/07/13 08:17:48;;;;;;;8.63;5.18;;;;;;;27.24;47.04;101712.63;3600582;39;20058;-64
2022/07/13 08:20:13;;;;;;;7.15;4.88;;;;;;;27.24;47.88;101705.22;3597863;39;20066;-64
2022/07/13 08:22:39;;;;;;;5.78;4.45;;;;;;;27.32;47.57;101707.06;3595583;39;20067;-64
2022/07/13 08:25:05;;;;;;;6.88;4.82;;;;;;;27.43;48.37;101703.84;3595891;39;20055;-65
2022/07/13 08:27:32;;;;;;;7.05;4.68;;;;;;;27.58;48.20;101716.88;3596910;39;20346;-64
2022/07/13 08:29:59;;;;;;;9.00;5.18;;;;;;;27.63;46.84;101714.44;3598508;39;20085;-65
2022/07/13 08:32:25;;;;;;;5.20;4.50;;;;;;;27.62;47.55;101719.06;3597526;39;20052;-67
2022/07/13 08:40:20;;;;;;;7.47;4.45;;;;;;;27.67;47.76;101715.78;3598912;39;20301;-64
2022/07/13 08:42:47;;;;;;;9.15;4.53;;;;;;;27.77;47.55;101717.25;3600829;39;20052;-65
2022/07/13 08:45:13;;;;;;;5.80;4.20;;;;;;;27.98;46.29;101713.78;3598930;39;20067;-64
2022/07/13 08:47:42;;;;;;;5.80;3.97;;;;;;;28.30;47.09;101708.97;3598093;39;20054;-65
2022/07/13 08:50:10;;;;;;;8.13;4.13;;;;;;;28.52;44.84;101717.38;3599962;39;20063;-64
2022/07/13 08:52:40;;;;;;;5.90;3.95;;;;;;;28.55;45.81;101711.47;3598974;39;20109;-64
2022/07/13 08:55:08;;;;;;;5.63;3.70;;;;;;;28.63;45.51;101714.13;3600132;39;20297;-64
2022/07/13 08:57:39;;;;;;;7.53;3.67;;;;;;;28.84;45.59;101710.56;3596593;39;20067;-65
2022/07/13 09:00:09;;;;;;;5.03;3.72;;;;;;;28.82;45.07;101716.28;3596762;39;20381;-65
2022/07/13 09:02:35;;;;;;;6.93;3.83;;;;;;;28.75;44.21;101726.41;3596485;39;20056;-65
2022/07/13 09:05:06;;;;;;;5.38;3.90;;;;;;;28.59;44.61;101715.56;3599422;39;20059;-64
2022/07/13 09:07:34;;;;;;;8.30;3.85;;;;;;;28.50;44.34;101727.78;3598403;39;20052;-64
2022/07/13 09:10:04;;;;;;;5.43;3.40;;;;;;;28.45;45.02;101726.44;3597535;39;20047;-65
2022/07/13 09:12:31;;;;;;;6.38;3.58;;;;;;;28.37;45.15;101722.88;3598795;39;20063;-65
2022/07/13 09:15:05;;;;;;;6.57;3.00;;;;;;;28.41;44.70;101727.84;3597667;39;20384;-65
2022/07/13 09:17:43;;;;;;;5.10;3.00;;;;;;;28.42;43.26;101721.28;3598251;39;20055;-65
2022/07/13 09:20:15;;;;;;;5.93;3.47;;;;;;;28.54;44.13;101731.88;3586086;39;20080;-65
2022/07/13 09:22:56;;;;;;;5.05;3.00;;;;;;;28.67;44.01;101735.69;3599652;39;20052;-65
2022/07/13 09:25:35;;;;;;;3.83;3.05;;;;;;;28.73;43.95;101741.50;3597910;39;20048;-65
2022/07/13 09:28:02;;;;;;;7.47;3.22;;;;;;;28.68;44.25;101731.88;3601070;39;20059;-66
2022/07/13 09:30:28;;;;;;;5.05;3.15;;;;;;;28.69;44.79;101735.50;3599266;39;20048;-67
2022/07/13 09:32:57;;;;;;;4.78;3.05;;;;;;;28.74;44.28;101721.94;3599414;39;20409;-66
2022/07/13 09:35:47;;;;;;;6.18;3.30;;;;;;;28.62;44.84;101738.16;3598842;39;20048;-65
2022/07/13 09:38:34;;;;;;;4.63;2.88;;;;;;;28.56;43.94;101738.94;3598670;39;20410;-65
2022/07/13 09:41:18;;;;;;;5.32;3.10;;;;;;;28.52;43.76;101734.84;3600632;39;20283;-66
2022/07/13 09:46:59;;;;;;;4.78;2.80;;;;;;;28.46;42.51;101724.53;3599602;39;20054;-66
2022/07/13 09:49:41;;;;;;;4.35;3.30;;;;;;;28.57;43.50;101723.19;3599327;39;20055;-65
2022/07/13 09:52:16;;;;;;;4.45;3.15;;;;;;;28.70;43.45;101723.34;3598542;39;20066;-65
2022/07/13 09:54:48;;;;;;;3.95;2.67;;;;;;;28.65;42.89;101736.94;3598115;39;20417;-65
2022/07/13 09:57:17;;;;;;;4.57;2.75;;;;;;;28.64;41.37;101724.13;3596955;39;21290;-65
2022/07/13 09:59:44;;;;;;;4.30;2.40;;;;;;;28.63;41.23;101727.94;3598733;39;20044;-65
2022/07/13 10:02:11;;;;;;;5.50;2.40;;;;;;;28.64;40.79;101730.53;3597284;39;20096;-65
2022/07/13 10:04:38;;;;;;;3.65;2.65;;;;;;;28.72;40.72;101737.88;3596369;39;20051;-65
2022/07/13 10:07:05;;;;;;;4.90;2.33;;;;;;;28.70;39.90;101745.50;3597746;39;20059;-65
2022/07/13 10:09:31;;;;;;;4.03;2.78;;;;;;;28.63;40.84;101736.25;3596953;39;20125;-65
2022/07/13 10:12:00;;;;;;;3.10;2.58;;;;;;;28.73;40.42;101739.56;3599579;39;20043;-65
2022/07/13 10:14:27;;;;;;;4.07;2.78;;;;;;;28.77;40.83;101742.84;3599632;39;20059;-65
2022/07/13 10:17:13;;;;;;;3.00;2.80;;;;;;;28.85;41.95;101748.25;3598213;39;20040;-66
2022/07/13 10:19:56;;;;;;;3.40;2.20;;;;;;;28.93;41.11;101751.78;3599150;39;20051;-65
2022/07/13 10:22:28;;;;;;;4.15;2.45;;;;;;;28.97;41.40;101748.63;3597915;39;20058;-66
2022/07/13 10:24:59;;;;;;;4.00;2.50;;;;;;;28.92;41.18;101744.53;3598794;39;20359;-65
2022/07/13 10:27:30;;;;;;;5.13;2.70;;;;;;;28.90;41.56;101740.25;3595921;39;20280;-64
2022/07/13 10:30:24;;;;;;;4.82;2.30;;;;;;;28.90;41.29;101749.41;3597845;39;20318;-64
2022/07/13 10:32:50;;;;;;;3.70;2.22;;;;;;;28.86;40.83;101750.84;3590654;39;20054;-64
2022/07/13 10:35:17;;;;;;;4.80;2.45;;;;;;;28.83;42.22;101751.22;3596477;39;20067;-64
2022/07/13 10:38:01;;;;;;;5.97;2.35;;;;;;;28.81;40.49;101758.84;3597210;39;20412;-64
2022/07/13 10:40:29;;;;;;;5.45;2.50;;;;;;;28.72;41.27;101765.53;3596797;39;20154;-65
2022/07/13 10:42:54;;;;;;;3.00;2.30;;;;;;;28.69;41.01;101760.41;3595496;39;20047;-66
2022/07/13 10:45:32;;;;;;;3.70;2.13;;;;;;;28.74;40.85;101749.63;3598307;39;20052;-65
2022/07/13 10:48:00;;;;;;;7.50;2.75;;;;;;;28.76;40.33;101750.25;3597290;39;20253;-66
2022/07/13 10:50:26;;;;;;;5.18;2.50;;;;;;;28.89;40.77;101756.00;3596623;39;20305;-66
2022/07/13 10:52:52;;;;;;;4.20;2.20;;;;;;;29.23;41.23;101760.03;3597954;39;20141;-66
2022/07/13 10:55:21;;;;;;;3.67;2.25;;;;;;;29.50;41.47;101761.22;3596477;39;20314;-65
2022/07/13 10:57:46;;;;;;;2.60;2.10;;;;;;;29.83;41.23;101758.78;3598544;39;20438;-65
2022/07/13 11:02:50;;;;;;;4.57;2.38;;;;;;;30.28;40.23;101762.16;3598025;39;20156;-66
2022/07/13 11:05:20;;;;;;;4.22;2.67;;;;;;;30.20;39.02;101770.66;3596114;39;20050;-65
2022/07/13 11:07:51;;;;;;;2.53;2.30;;;;;;;30.00;39.11;101755.72;3596384;39;20054;-64
2022/07/13 11:10:25;;;;;;;3.15;2.28;;;;;;;29.79;38.03;101771.34;3599232;39;20120;-66
2022/07/13 11:13:09;;;;;;;3.00;2.17;;;;;;;29.54;39.16;101770.84;3597787;39;20052;-66
2022/07/13 11:15:55;;;;;;;4.75;2.35;;;;;;;29.51;39.04;101759.28;3598093;39;20087;-65
2022/07/13 11:18:21;;;;;;;3.45;2.45;;;;;;;29.49;39.33;101767.78;3597379;39;20382;-65
2022/07/13 11:21:02;;;;;;;5.47;2.40;;;;;;;29.53;39.94;101773.81;3596527;39;20067;-65
2022/07/13 11:26:55;;;;;;;2.38;2.10;;;;;;;29.92;40.81;101767.81;3596682;39;20097;-65
2022/07/13 11:29:48;;;;;;;2.47;2.10;;;;;;;30.48;38.74;101761.44;3594687;39;20058;-66
2022/07/13 11:32:20;;;;;;;2.95;2.30;;;;;;;30.70;37.89;101754.75;3596054;39;20055;-65
2022/07/13 11:34:49;;;;;;;2.53;2.20;;;;;;;31.28;37.15;101765.47;3597374;39;20403;-66
2022/07/13 11:37:23;;;;;;;3.25;2.20;;;;;;;31.76;35.66;101764.53;3595487;39;20544;-67
2022/07/13 11:39:49;;;;;;;8.32;2.70;;;;;;;31.84;34.21;101767.97;3595481;39;20340;-66
2022/07/13 11:42:14;;;;;;;2.92;2.40;;;;;;;31.60;36.28;101777.78;3597210;39;20059;-66